Time;durP1;ratioP1;P1;durP2;ratioP2;P2;SDS_P1;SDS_P2;PMS_P1;PMS_P2;Temp;Humidity;BMP_temperature;BMP_pressure;BME280_temperature;BME280_humidity;BME280_pressure;Samples;Min_cycle;Max_cycle;Signal;HPM_P1;HPM_P2
2021/06/06 00:01:23;431866.00;1.44;744.59;68849.00;0.23;119.77;;;;;19.20;5.00;;;;;;2245226;61;1050;-90
2021/06/06 00:03:56;734051.00;2.45;1266.34;76261.00;0.25;132.58;;;;;19.20;5.60;;;;;;2245799;61;1038;-90
2021/06/06 00:06:27;611367.00;2.04;1053.85;33550.00;0.11;58.73;;;;;19.40;4.40;;;;;;2260052;61;950;-90
2021/06/06 00:09:03;664749.00;2.22;1146.16;16097.00;0.05;28.51;;;;;19.30;5.10;;;;;;2250034;61;1347;-91
2021/06/06 00:11:34;592921.00;1.98;1022.00;0.00;0.00;0.62;;;;;19.40;4.20;;;;;;2247929;61;947;-90
2021/06/06 00:14:04;225585.00;0.75;389.95;0.00;0.00;0.62;;;;;19.20;4.80;;;;;;2243161;61;1003;-91
2021/06/06 00:16:37;265958.00;0.89;459.39;0.00;0.00;0.62;;;;;19.60;4.20;;;;;;2251908;61;1013;-92
2021/06/06 00:19:03;305353.00;1.02;527.12;0.00;0.00;0.62;;;;;19.80;3.00;;;;;;2251819;61;1923;-91
2021/06/06 00:21:30;272631.00;0.91;470.87;0.00;0.00;0.62;;;;;19.90;1.50;;;;;;2252057;61;1063;-90
2021/06/06 00:23:58;299811.00;1.00;517.60;0.00;0.00;0.62;;;;;20.00;1.10;;;;;;2255393;61;934;-90
2021/06/06 00:26:25;304504.00;1.02;525.66;0.00;0.00;0.62;;;;;20.30;1.00;;;;;;2256007;61;948;-91
2021/06/06 00:28:52;280737.00;0.94;484.80;0.00;0.00;0.62;;;;;20.40;1.00;;;;;;2257703;61;1434;-90
2021/06/06 00:31:19;251229.00;0.84;434.06;0.00;0.00;0.62;;;;;20.00;1.00;;;;;;2257253;61;1017;-90
2021/06/06 00:33:49;407521.00;1.36;702.74;85284.00;0.28;148.16;;;;;20.10;1.00;;;;;;2257291;61;995;-90
2021/06/06 00:36:17;161282.00;0.54;279.25;0.00;0.00;0.62;;;;;20.20;1.00;;;;;;2256473;61;1010;-90
2021/06/06 00:38:43;330155.00;1.10;569.75;0.00;0.00;0.62;;;;;20.30;1.00;;;;;;2256420;61;2001;-91
2021/06/06 00:41:12;201797.00;0.67;349.02;0.00;0.00;0.62;;;;;20.30;1.00;;;;;;2253280;61;972;-90
2021/06/06 00:43:39;382721.00;1.28;660.10;66405.00;0.22;115.55;;;;;20.30;1.00;;;;;;2259932;61;1062;-91
2021/06/06 00:46:07;420199.00;1.40;724.53;75803.00;0.25;131.79;;;;;20.20;1.00;;;;;;2259789;61;969;-89
2021/06/06 00:48:33;454231.00;1.51;783.06;85224.00;0.28;148.06;;;;;20.10;1.00;;;;;;2255769;61;1502;-91
2021/06/06 00:51:06;393860.00;1.31;679.25;69770.00;0.23;121.36;;;;;20.10;1.00;;;;;;2247807;61;1016;-90
2021/06/06 00:53:37;555322.00;1.85;957.13;12285.00;0.04;21.91;;;;;19.90;1.00;;;;;;2251891;61;968;-91
2021/06/06 00:56:11;438491.00;1.46;755.99;66241.00;0.22;115.26;;;;;19.90;1.00;;;;;;2251845;61;1024;-91
2021/06/06 00:58:42;407232.00;1.36;702.24;64355.00;0.21;112.00;;;;;19.80;1.00;;;;;;2251845;61;1947;-91
2021/06/06 01:01:11;513923.00;1.71;885.80;83029.00;0.28;144.27;;;;;19.80;1.00;;;;;;2251836;61;1022;-91
2021/06/06 01:03:40;374527.00;1.25;646.02;75865.00;0.25;131.89;;;;;19.50;1.00;;;;;;2251809;61;995;-91
2021/06/06 01:06:12;286780.00;0.96;495.19;72261.00;0.24;125.67;;;;;19.70;1.00;;;;;;2253067;61;1049;-90
2021/06/06 01:08:40;328496.00;1.09;566.90;0.00;0.00;0.62;;;;;19.60;1.00;;;;;;2256500;61;1408;-90
2021/06/06 01:11:14;637859.00;2.13;1099.64;116613.00;0.39;202.24;;;;;19.50;1.50;;;;;;2257881;61;1038;-90
2021/06/06 01:13:45;359628.00;1.20;620.41;0.00;0.00;0.62;;;;;19.60;1.00;;;;;;2267811;61;920;-91
2021/06/06 01:16:17;460516.00;1.54;793.87;0.00;0.00;0.62;;;;;19.90;1.00;;;;;;2261120;61;1025;-92
2021/06/06 01:18:47;226412.00;0.75;391.38;0.00;0.00;0.62;;;;;20.00;1.00;;;;;;2267868;61;1995;-90
2021/06/06 01:21:31;294588.00;0.98;508.62;79119.00;0.26;137.52;;;;;19.80;1.00;;;;;;2268279;61;934;-90
2021/06/06 01:24:17;379118.00;1.26;653.91;0.00;0.00;0.62;;;;;20.00;1.00;;;;;;2267991;61;921;-90
2021/06/06 01:26:54;590487.00;1.97;1017.80;0.00;0.00;0.62;;;;;20.30;1.00;;;;;;2255575;61;1004;-90
2021/06/06 01:29:34;279992.00;0.93;483.52;0.00;0.00;0.62;;;;;20.40;1.00;;;;;;2255638;61;1339;-90
2021/06/06 01:32:09;141224.00;0.47;244.68;0.00;0.00;0.62;;;;;20.60;1.00;;;;;;2255878;61;1109;-90
2021/06/06 01:34:37;336608.00;1.12;580.84;0.00;0.00;0.62;;;;;20.40;1.00;;;;;;2255847;61;1066;-91
2021/06/06 01:37:07;389240.00;1.30;671.31;0.00;0.00;0.62;;;;;20.20;1.00;;;;;;2255875;61;1225;-91
2021/06/06 01:39:40;136991.00;0.46;237.38;0.00;0.00;0.62;;;;;20.10;1.00;;;;;;2249202;61;2002;-91
2021/06/06 01:42:15;110109.00;0.37;191.02;0.00;0.00;0.62;;;;;19.80;1.00;;;;;;2251813;61;999;-90
2021/06/06 01:44:52;193443.00;0.64;334.64;0.00;0.00;0.62;;;;;19.50;1.00;;;;;;2251797;61;1037;-91
2021/06/06 01:47:21;39771.00;0.13;69.49;0.00;0.00;0.62;;;;;19.70;1.00;;;;;;2239813;62;948;-91
2021/06/06 01:49:54;147240.00;0.49;255.05;0.00;0.00;0.62;;;;;19.70;1.00;;;;;;2239807;62;1460;-91
2021/06/06 01:52:24;12307.00;0.04;21.95;0.00;0.00;0.62;;;;;19.70;1.00;;;;;;2232024;62;1111;-91
2021/06/06 01:54:55;64936.00;0.22;113.01;0.00;0.00;0.62;;;;;19.80;1.00;;;;;;2232077;62;977;-91
2021/06/06 01:57:25;134634.00;0.45;233.32;0.00;0.00;0.62;;;;;19.80;1.00;;;;;;2232030;62;1016;-91
2021/06/06 02:00:11;82119.00;0.27;142.70;0.00;0.00;0.62;;;;;19.70;1.00;;;;;;2235735;62;1916;-92
2021/06/06 02:02:41;184995.00;0.62;320.09;0.00;0.00;0.62;;;;;20.00;1.00;;;;;;2222016;62;1018;-90
2021/06/06 02:05:10;249937.00;0.83;431.84;0.00;0.00;0.62;;;;;20.00;1.00;;;;;;2231226;62;935;-90
2021/06/06 02:07:37;5103.00;0.02;9.46;0.00;0.00;0.62;;;;;19.90;1.00;;;;;;2231894;62;1040;-90
2021/06/06 02:10:12;76619.00;0.26;133.20;0.00;0.00;0.62;;;;;19.70;1.00;;;;;;2234883;62;1372;-91
2021/06/06 02:12:45;136430.00;0.45;236.42;0.00;0.00;0.62;;;;;19.60;1.70;;;;;;2231966;62;998;-90
2021/06/06 02:15:15;17536.00;0.06;31.00;0.00;0.00;0.62;;;;;19.50;2.60;;;;;;2231895;62;1089;-90
2021/06/06 02:17:42;103286.00;0.34;179.24;0.00;0.00;0.62;;;;;19.60;2.30;;;;;;2225504;62;976;-90
2021/06/06 02:20:12;140384.00;0.47;243.23;0.00;0.00;0.62;;;;;19.50;2.50;;;;;;2231839;62;1921;-91
2021/06/06 02:22:38;20494.00;0.07;36.13;0.00;0.00;0.62;;;;;19.50;2.70;;;;;;2232003;62;962;-91
2021/06/06 02:25:08;24989.00;0.08;43.91;0.00;0.00;0.62;;;;;19.50;1.90;;;;;;2231878;62;993;-91
2021/06/06 02:27:39;54661.00;0.18;95.25;0.00;0.00;0.62;;;;;19.90;1.10;;;;;;2231799;62;973;-90
2021/06/06 02:30:15;156937.00;0.52;271.76;0.00;0.00;0.62;;;;;19.80;1.00;;;;;;2231184;62;1473;-89
2021/06/06 02:32:51;160321.00;0.53;277.59;0.00;0.00;0.62;;;;;19.80;1.60;;;;;;2232812;62;1040;-90
2021/06/06 02:35:25;115190.00;0.38;199.78;0.00;0.00;0.62;;;;;19.60;1.90;;;;;;2227909;62;977;-90
2021/06/06 02:37:57;236973.00;0.79;409.54;0.00;0.00;0.62;;;;;19.50;2.60;;;;;;2227855;62;1406;-89
2021/06/06 02:40:32;257868.00;0.86;445.48;5933.00;0.02;10.90;;;;;19.30;3.20;;;;;;2238231;62;2007;-90
2021/06/06 02:43:06;242166.00;0.81;418.48;0.00;0.00;0.62;;;;;19.20;3.60;;;;;;2240412;62;1030;-91
2021/06/06 02:45:35;234740.00;0.78;405.70;0.00;0.00;0.62;;;;;19.50;2.80;;;;;;2238226;62;961;-90
2021/06/06 02:48:08;73666.00;0.25;128.09;0.00;0.00;0.62;;;;;19.50;2.40;;;;;;2228530;62;1386;-90
2021/06/06 02:50:41;204501.00;0.68;353.67;0.00;0.00;0.62;;;;;19.50;3.10;;;;;;2225679;62;989;-91
2021/06/06 02:53:17;143999.00;0.48;249.46;0.00;0.00;0.62;;;;;19.30;3.60;;;;;;2235625;61;944;-91
2021/06/06 02:55:50;167254.00;0.56;289.54;0.00;0.00;0.62;;;;;19.00;5.40;;;;;;2234076;62;1025;-90
2021/06/06 02:58:21;284826.00;0.95;491.83;15652.00;0.05;27.74;;;;;18.90;6.00;;;;;;2236358;62;1439;-90
2021/06/06 03:00:52;268434.00;0.89;463.65;97032.00;0.32;168.45;;;;;19.10;5.50;;;;;;2236378;62;2060;-90
2021/06/06 03:03:25;233137.00;0.78;402.95;0.00;0.00;0.62;;;;;19.10;5.30;;;;;;2239467;61;957;-91
2021/06/06 03:08:19;1293461.00;4.31;2260.14;0.00;0.00;0.62;;;;;19.10;5.10;;;;;;2273421;61;1361;-90
2021/06/06 03:10:48;359058.00;1.20;619.43;17838.00;0.06;31.53;;;;;19.50;3.30;;;;;;2268628;61;1351;-90
2021/06/06 03:15:48;1162985.00;3.88;2023.44;0.00;0.00;0.62;;;;;20.00;1.00;;;;;;2278691;61;1878;-89
2021/06/06 03:18:16;235848.00;0.79;407.61;0.00;0.00;0.62;;;;;19.80;1.00;;;;;;2276648;61;1325;-91
2021/06/06 03:20:46;236000.00;0.79;407.87;61208.00;0.20;106.57;;;;;19.80;1.10;;;;;;2271920;61;1931;-90
2021/06/06 03:23:17;248333.00;0.83;429.08;84632.00;0.28;147.04;;;;;19.70;1.50;;;;;;2272125;61;1015;-91
2021/06/06 03:25:50;248218.00;0.83;428.89;148.00;0.00;0.88;;;;;19.90;1.00;;;;;;2271675;61;1044;-92
2021/06/06 03:28:21;57435.00;0.19;100.04;0.00;0.00;0.62;;;;;20.00;1.00;;;;;;2272026;61;1772;-91
2021/06/06 03:30:50;213611.00;0.71;369.35;148.00;0.00;0.88;;;;;20.10;1.00;;;;;;2272042;61;1146;-90
2021/06/06 03:33:20;249063.00;0.83;430.34;40278.00;0.13;70.37;;;;;20.10;1.00;;;;;;2272236;61;1034;-90
2021/06/06 03:35:48;291317.00;0.97;502.99;0.00;0.00;0.62;;;;;19.70;1.30;;;;;;2272220;61;937;-90
2021/06/06 03:38:18;179342.00;0.60;310.36;23426.00;0.08;41.20;;;;;19.80;1.90;;;;;;2273073;61;1355;-88
2021/06/06 03:40:50;252799.00;0.84;436.76;88856.00;0.30;154.33;;;;;19.90;1.30;;;;;;2276685;61;1926;-89
2021/06/06 03:43:19;10938.00;0.04;19.57;0.00;0.00;0.62;;;;;20.10;1.00;;;;;;2276447;61;1801;-90
2021/06/06 03:45:46;286362.00;0.95;494.48;592.00;0.00;1.65;;;;;20.00;1.00;;;;;;2272218;61;999;-90
2021/06/06 03:48:13;177992.00;0.59;308.03;0.00;0.00;0.62;;;;;20.00;1.00;;;;;;2272047;61;1764;-90
2021/06/06 03:50:41;458865.00;1.53;791.03;99105.00;0.33;172.03;;;;;19.50;2.20;;;;;;2271707;61;1161;-90
2021/06/06 03:53:09;394635.00;1.32;680.58;0.00;0.00;0.62;;;;;19.00;4.90;;;;;;2272007;61;1668;-89
2021/06/06 03:55:36;310496.00;1.03;535.96;60990.00;0.20;106.19;;;;;18.80;5.30;;;;;;2271958;61;1660;-90
2021/06/06 03:58:05;203129.00;0.68;351.31;0.00;0.00;0.62;;;;;18.90;5.70;;;;;;2271989;61;1309;-89
2021/06/06 04:00:35;533788.00;1.78;920.02;21726.00;0.07;38.26;;;;;19.10;4.40;;;;;;2272051;61;1979;-90
2021/06/06 04:03:03;228889.00;0.76;395.64;450.00;0.00;1.40;;;;;19.00;5.10;;;;;;2271743;61;1002;-90
2021/06/06 04:05:29;231920.00;0.77;400.85;65683.00;0.22;114.30;;;;;19.30;4.20;;;;;;2272181;61;973;-90
2021/06/06 04:07:57;221455.00;0.74;382.85;0.00;0.00;0.62;;;;;19.70;2.60;;;;;;2272068;61;1324;-89
2021/06/06 04:10:24;170014.00;0.57;294.29;0.00;0.00;0.62;;;;;20.00;1.10;;;;;;2262296;61;986;-89
2021/06/06 04:12:51;162517.00;0.54;281.38;0.00;0.00;0.62;;;;;20.00;1.20;;;;;;2263381;61;1015;-90
2021/06/06 04:15:20;98879.00;0.33;171.64;0.00;0.00;0.62;;;;;19.80;1.50;;;;;;2263902;61;1657;-89
2021/06/06 04:17:46;158270.00;0.53;274.06;0.00;0.00;0.62;;;;;19.60;2.60;;;;;;2263904;61;1127;-90
2021/06/06 04:20:14;270771.00;0.90;467.67;0.00;0.00;0.62;;;;;19.60;2.90;;;;;;2263988;61;2014;-90
2021/06/06 04:22:41;327238.00;1.09;564.74;0.00;0.00;0.62;;;;;19.80;1.70;;;;;;2263983;61;1616;-90
2021/06/06 04:25:11;109846.00;0.37;190.56;0.00;0.00;0.62;;;;;19.70;1.90;;;;;;2264049;61;1068;-89
2021/06/06 04:27:37;158939.00;0.53;275.21;0.00;0.00;0.62;;;;;19.80;2.10;;;;;;2261901;61;932;-90
2021/06/06 04:30:05;544335.00;1.81;938.19;116750.00;0.39;202.48;;;;;19.70;1.80;;;;;;2271784;61;1288;-90
2021/06/06 04:32:33;195080.00;0.65;337.45;0.00;0.00;0.62;;;;;20.00;1.30;;;;;;2272120;61;962;-90
2021/06/06 04:35:00;249722.00;0.83;431.47;21619.00;0.07;38.07;;;;;19.70;1.40;;;;;;2272118;61;1035;-89
2021/06/06 04:37:26;186733.00;0.62;323.08;0.00;0.00;0.62;;;;;19.90;1.60;;;;;;2272193;61;1001;-90
2021/06/06 04:45:04;16453.00;0.05;29.13;0.00;0.00;0.62;;;;;19.60;1.40;;;;;;2268033;61;915;-90
2021/06/06 04:47:32;110737.00;0.37;192.10;0.00;0.00;0.62;;;;;19.50;3.40;;;;;;2267948;61;999;-89
2021/06/06 04:49:59;200062.00;0.67;346.03;0.00;0.00;0.62;;;;;19.60;2.60;;;;;;2268044;61;1365;-89
2021/06/06 04:52:26;107569.00;0.36;186.64;0.00;0.00;0.62;;;;;19.80;2.10;;;;;;2259933;61;954;-90
2021/06/06 04:54:53;213548.00;0.71;369.24;8547.00;0.03;15.43;;;;;19.80;1.70;;;;;;2251896;61;989;-90
2021/06/06 04:57:19;194414.00;0.65;336.31;0.00;0.00;0.62;;;;;19.50;3.10;;;;;;2251928;61;1029;-90
2021/06/06 04:59:46;221686.00;0.74;383.24;298.00;0.00;1.14;;;;;19.30;4.00;;;;;;2247888;61;2021;-89
2021/06/06 05:02:12;204616.00;0.68;353.87;0.00;0.00;0.62;;;;;19.00;5.40;;;;;;2243989;61;948;-90
2021/06/06 05:04:41;164653.00;0.55;285.06;0.00;0.00;0.62;;;;;19.20;5.20;;;;;;2236131;61;1050;-90
2021/06/06 05:07:07;119692.00;0.40;207.55;0.00;0.00;0.62;;;;;19.40;4.80;;;;;;2232336;62;955;-89
2021/06/06 05:09:34;47614.00;0.16;83.06;0.00;0.00;0.62;;;;;19.50;3.50;;;;;;2232200;62;1425;-90
2021/06/06 05:12:01;169997.00;0.57;294.26;0.00;0.00;0.62;;;;;19.40;3.50;;;;;;2232753;62;1708;-89
2021/06/06 05:14:27;174286.00;0.58;301.65;0.00;0.00;0.62;;;;;19.60;4.10;;;;;;2236212;62;1777;-90
2021/06/06 05:16:54;171851.00;0.57;297.45;0.00;0.00;0.62;;;;;19.70;3.40;;;;;;2237118;61;1793;-90
2021/06/06 05:19:21;164270.00;0.55;284.40;0.00;0.00;0.62;;;;;19.70;3.60;;;;;;2244441;61;2007;-90
2021/06/06 05:21:49;200981.00;0.67;347.61;0.00;0.00;0.62;;;;;19.80;2.70;;;;;;2248860;61;1533;-89
2021/06/06 05:24:15;182895.00;0.61;316.47;0.00;0.00;0.62;;;;;19.70;3.40;;;;;;2252749;61;1623;-90
2021/06/06 05:26:42;482517.00;1.61;831.73;101073.00;0.34;175.42;;;;;19.70;2.90;;;;;;2261156;61;1758;-90
2021/06/06 05:29:09;536149.00;1.79;924.09;38057.00;0.13;66.53;;;;;19.60;3.50;;;;;;2272220;61;1743;-91
2021/06/06 05:31:36;233510.00;0.78;403.59;0.00;0.00;0.62;;;;;19.60;4.10;;;;;;2272107;61;1784;-91
2021/06/06 05:34:03;265259.00;0.88;458.19;0.00;0.00;0.62;;;;;19.70;3.40;;;;;;2272237;61;1680;-91
2021/06/06 05:36:29;253885.00;0.85;438.63;0.00;0.00;0.62;;;;;19.40;3.60;;;;;;2272036;61;1699;-92
2021/06/06 05:38:58;299911.00;1.00;517.77;0.00;0.00;0.62;;;;;19.30;5.60;;;;;;2271944;61;1792;-91
2021/06/06 05:41:24;251572.00;0.84;434.65;64872.00;0.22;112.90;;;;;19.20;5.60;;;;;;2272098;61;2009;-92
2021/06/06 05:43:51;185028.00;0.62;320.15;0.00;0.00;0.62;;;;;19.50;5.70;;;;;;2272114;61;1033;-92
2021/06/06 05:46:20;176411.00;0.59;305.31;0.00;0.00;0.62;;;;;19.90;3.40;;;;;;2272190;61;1031;-91
2021/06/06 05:48:47;215203.00;0.72;372.09;0.00;0.00;0.62;;;;;20.10;2.60;;;;;;2272009;61;1784;-90
2021/06/06 05:51:13;238769.00;0.80;412.63;0.00;0.00;0.62;;;;;20.30;2.00;;;;;;2272071;61;1681;-93
2021/06/06 06:09:13;1238650.00;4.13;2160.26;71863.00;0.24;124.98;;;;;19.90;1.00;;;;;;2265218;61;1344;-90
2021/06/06 06:11:39;119059984.00;396.87;68366352.00;0.00;0.00;0.62;;;;;19.40;3.30;;;;;;2255229;61;1017;-90
2021/06/06 06:14:06;184636.00;0.62;319.47;0.00;0.00;0.62;;;;;19.40;3.40;;;;;;2255128;61;907;-91
2021/06/06 06:16:37;232640.00;0.78;402.09;0.00;0.00;0.62;;;;;19.70;3.50;;;;;;2243214;62;1028;-90
2021/06/06 06:19:06;387163.00;1.29;667.74;88506.00;0.30;153.73;;;;;19.80;2.90;;;;;;2243306;62;1358;-92
2021/06/06 06:21:36;199347.00;0.66;344.80;0.00;0.00;0.62;;;;;19.30;5.00;;;;;;2231461;62;984;-92
2021/06/06 06:24:03;293904.00;0.98;507.44;17112.00;0.06;30.27;;;;;19.70;3.70;;;;;;2231439;62;951;-90
2021/06/06 06:26:31;309159.00;1.03;533.66;0.00;0.00;0.62;;;;;19.90;3.50;;;;;;2227668;62;1047;-90
2021/06/06 06:28:57;253253.00;0.84;437.55;579.00;0.00;1.62;;;;;20.00;3.10;;;;;;2229209;62;1293;-91
2021/06/06 06:31:24;252383.00;0.84;436.05;0.00;0.00;0.62;;;;;20.20;2.90;;;;;;2231900;62;1076;-91
2021/06/06 06:33:51;454360.00;1.51;783.28;94731.00;0.32;164.48;;;;;20.20;2.10;;;;;;2233111;61;1029;-90
2021/06/06 06:36:20;264978.00;0.88;457.71;3673.00;0.01;6.99;;;;;19.60;2.70;;;;;;2227982;62;1034;-91
2021/06/06 06:38:50;102108.00;0.34;177.21;0.00;0.00;0.62;;;;;19.50;5.70;;;;;;2229225;62;1306;-89
2021/06/06 06:41:17;69773.00;0.23;121.37;0.00;0.00;0.62;;;;;19.50;5.70;;;;;;2235711;62;1933;-91
2021/06/06 06:43:45;213331.00;0.71;368.87;0.00;0.00;0.62;;;;;19.50;5.00;;;;;;2237066;61;1668;-90
2021/06/06 06:46:12;254249.00;0.85;439.26;0.00;0.00;0.62;;;;;19.60;6.30;;;;;;2243811;61;1800;-90
2021/06/06 06:48:40;166994.00;0.56;289.09;0.00;0.00;0.62;;;;;19.20;5.60;;;;;;2244676;61;1274;-91
2021/06/06 06:51:08;155431.00;0.52;269.17;0.00;0.00;0.62;;;;;18.90;6.70;;;;;;2251616;61;1789;-90
2021/06/06 06:53:35;212695.00;0.71;367.77;0.00;0.00;0.62;;;;;19.10;6.70;;;;;;2245728;61;1042;-90
2021/06/06 06:56:02;203504.00;0.68;351.96;0.00;0.00;0.62;;;;;19.20;5.60;;;;;;2247505;61;982;-90
2021/06/06 06:58:32;211078.00;0.70;364.99;0.00;0.00;0.62;;;;;19.20;6.10;;;;;;2247388;61;1271;-89
2021/06/06 07:01:03;237750.00;0.79;410.88;50936.00;0.17;88.80;;;;;19.30;6.50;;;;;;2247414;61;1985;-88
2021/06/06 07:03:32;152787.00;0.51;264.61;0.00;0.00;0.62;;;;;19.00;6.90;;;;;;2247438;61;1225;-91
2021/06/06 07:06:05;286016.00;0.95;493.88;0.00;0.00;0.62;;;;;19.70;3.80;;;;;;2243270;61;982;-89
2021/06/06 07:08:35;402610.00;1.34;694.29;51784.00;0.17;90.27;;;;;20.20;3.00;;;;;;2238459;62;1306;-90
2021/06/06 07:13:34;378467.00;1.26;652.79;0.00;0.00;0.62;;;;;20.10;2.40;;;;;;2273393;61;1413;-90
2021/06/06 07:16:03;262024.00;0.87;452.63;0.00;0.00;0.62;;;;;20.00;3.10;;;;;;2271906;61;1700;-90
2021/06/06 07:18:30;246201.00;0.82;425.42;0.00;0.00;0.62;;;;;20.10;3.40;;;;;;2271894;61;1654;-90
2021/06/06 07:21:04;125662.00;0.42;217.85;0.00;0.00;0.62;;;;;20.20;2.80;;;;;;2271884;61;2000;-91
2021/06/06 07:23:36;258387.00;0.86;446.37;0.00;0.00;0.62;;;;;19.90;3.50;;;;;;2271370;61;1553;-89
2021/06/06 07:26:19;370015.00;1.23;638.26;10528.00;0.04;18.86;;;;;19.50;4.80;;;;;;2272002;61;1131;-89
2021/06/06 07:28:46;108820.00;0.36;188.79;0.00;0.00;0.62;;;;;19.50;6.30;;;;;;2272552;61;1805;-90
2021/06/06 07:31:16;335903.00;1.12;579.63;52249.00;0.17;91.08;;;;;19.20;6.90;;;;;;2272505;61;1070;-89
2021/06/06 07:33:50;100609.00;0.34;174.62;0.00;0.00;0.62;;;;;19.10;6.90;;;;;;2263904;61;970;-88
2021/06/06 07:36:20;383263.00;1.28;661.03;54916.00;0.18;95.69;;;;;19.10;7.40;;;;;;2264090;61;1580;-89
2021/06/06 07:38:48;553654.00;1.85;954.26;107724.00;0.36;186.90;;;;;19.50;6.20;;;;;;2263960;61;1814;-90
2021/06/06 07:41:15;228922.00;0.76;395.69;76764.00;0.26;133.45;;;;;19.70;5.60;;;;;;2264035;61;1922;-90
2021/06/06 07:43:42;262339.00;0.87;453.17;0.00;0.00;0.62;;;;;19.70;4.60;;;;;;2264101;61;1603;-89
2021/06/06 07:46:08;112260.00;0.37;194.73;0.00;0.00;0.62;;;;;19.50;5.40;;;;;;2264113;61;1166;-89
2021/06/06 07:51:36;360767.00;1.20;622.37;74940.00;0.25;130.30;;;;;19.70;6.40;;;;;;2257098;61;945;-89
2021/06/06 07:54:05;525017.00;1.75;904.91;72297.00;0.24;125.73;;;;;20.10;4.90;;;;;;2260045;61;930;-90
2021/06/06 07:56:31;485196.00;1.62;836.34;0.00;0.00;0.62;;;;;20.50;3.50;;;;;;2260051;61;1044;-89
2021/06/06 07:58:58;336943.00;1.12;581.42;0.00;0.00;0.62;;;;;20.70;1.70;;;;;;2260032;61;1292;-90
2021/06/06 08:01:25;402986.00;1.34;694.94;103454.00;0.34;179.53;;;;;20.70;1.60;;;;;;2260038;61;1928;-91
2021/06/06 08:03:54;555519.00;1.85;957.47;0.00;0.00;0.62;;;;;20.60;2.20;;;;;;2252070;61;1022;-91
2021/06/06 08:06:23;732585.00;2.44;1263.79;42088.00;0.14;73.50;;;;;20.70;1.20;;;;;;2248928;61;959;-91
2021/06/06 08:08:50;478614.00;1.60;825.01;0.00;0.00;0.62;;;;;20.90;1.00;;;;;;2256078;61;1814;-90
2021/06/06 08:11:16;608228.00;2.03;1048.43;0.00;0.00;0.62;;;;;20.60;1.00;;;;;;2255815;61;983;-89
2021/06/06 08:13:43;372719.00;1.24;642.91;614.00;0.00;1.68;;;;;20.50;2.40;;;;;;2256066;61;1156;-90
2021/06/06 08:16:11;433253.00;1.44;746.98;41894.00;0.14;73.17;;;;;20.60;2.60;;;;;;2256082;61;1007;-90
2021/06/06 08:18:40;520273.00;1.73;896.74;0.00;0.00;0.62;;;;;20.70;1.80;;;;;;2256077;61;1387;-89
2021/06/06 08:21:11;230276.00;0.77;398.02;0.00;0.00;0.62;;;;;20.80;1.30;;;;;;2256639;61;2005;-90
2021/06/06 08:23:39;336875.00;1.12;581.30;0.00;0.00;0.62;;;;;20.30;2.70;;;;;;2260041;61;1739;-89
2021/06/06 08:26:06;382905.00;1.28;660.42;449.00;0.00;1.40;;;;;20.00;4.50;;;;;;2248056;61;957;-90
2021/06/06 08:28:34;294198.00;0.98;507.95;0.00;0.00;0.62;;;;;20.10;3.90;;;;;;2248551;61;1385;-89
2021/06/06 08:31:09;185404.00;0.62;320.80;0.00;0.00;0.62;;;;;20.30;1.60;;;;;;2259210;61;1038;-90
2021/06/06 08:33:36;407407.00;1.36;702.54;0.00;0.00;0.62;;;;;20.40;3.00;;;;;;2263629;61;1029;-91
2021/06/06 08:36:17;286117.00;0.95;494.05;0.00;0.00;0.62;;;;;20.50;2.80;;;;;;2263944;61;1115;-91
2021/06/06 08:38:44;152643.00;0.51;264.36;0.00;0.00;0.62;;;;;20.00;4.20;;;;;;2254155;61;1465;-90
2021/06/06 08:41:16;367590.00;1.23;634.09;0.00;0.00;0.62;;;;;20.00;5.60;;;;;;2251932;61;1997;-91
2021/06/06 08:43:50;369882.00;1.23;638.03;0.00;0.00;0.62;;;;;19.90;5.60;;;;;;2255812;61;984;-91
2021/06/06 08:46:20;115389.00;0.38;200.13;0.00;0.00;0.62;;;;;20.00;6.20;;;;;;2263893;61;972;-91
2021/06/06 08:48:47;288058.00;0.96;497.39;0.00;0.00;0.62;;;;;20.10;5.40;;;;;;2259819;61;1416;-92
2021/06/06 08:51:27;330783.00;1.10;570.83;0.00;0.00;0.62;;;;;20.20;6.30;;;;;;2259782;61;1068;-91
2021/06/06 08:54:10;85779.00;0.29;149.02;0.00;0.00;0.62;;;;;20.50;3.10;;;;;;2259732;61;1706;-91
2021/06/06 08:56:38;164255.00;0.55;284.37;0.00;0.00;0.62;;;;;20.90;2.80;;;;;;2259863;61;1581;-91
2021/06/06 08:59:09;138874.00;0.46;240.63;0.00;0.00;0.62;;;;;20.60;3.00;;;;;;2257990;61;1315;-91
2021/06/06 09:01:44;170665.00;0.57;295.41;0.00;0.00;0.62;;;;;20.50;3.80;;;;;;2257579;61;2205;-93
2021/06/06 09:04:18;193975.00;0.65;335.55;0.00;0.00;0.62;;;;;20.60;3.70;;;;;;2261649;61;1592;-91
2021/06/06 09:45:20;1361680.00;4.54;2385.44;143548.00;0.48;248.69;;;;;21.20;1.00;;;;;;2509509;40;3531;31
2021/06/06 10:16:13;429801.00;1.43;741.04;66193.00;0.22;115.18;;;;;21.60;1.00;;;;;;2422627;40;3396;31
2021/06/06 12:48:39;1186969.00;3.96;2066.68;102484.00;0.34;177.86;;;;;21.50;1.00;;;;;;2278990;61;1359;-90
2021/06/06 12:51:23;684127.00;2.28;1179.72;95917.00;0.32;166.52;;;;;21.30;1.00;;;;;;2263774;61;1003;-91
2021/06/06 13:04:12;1214149.00;4.05;2115.82;47885.00;0.16;83.53;;;;;21.50;1.00;;;;;;2277902;61;1275;-91
2021/06/06 13:06:41;382008.00;1.27;658.88;0.00;0.00;0.62;;;;;21.70;1.00;;;;;;2271735;61;993;-93
2021/06/06 13:09:18;458623.00;1.53;790.62;0.00;0.00;0.62;;;;;21.60;1.00;;;;;;2263694;61;1405;-92
2021/06/06 13:11:46;327795.00;1.09;565.70;0.00;0.00;0.62;;;;;21.30;1.00;;;;;;2263824;61;943;-91
2021/06/06 13:14:28;324216.00;1.08;559.54;0.00;0.00;0.62;;;;;21.40;1.00;;;;;;2263394;61;1858;-92
2021/06/06 13:16:59;123552.00;0.41;214.21;0.00;0.00;0.62;;;;;21.50;1.00;;;;;;2251758;61;1002;-91
2021/06/06 13:19:30;327332.00;1.09;564.90;0.00;0.00;0.62;;;;;21.60;1.00;;;;;;2251816;61;1303;-92
2021/06/06 13:22:10;385957.00;1.29;665.66;0.00;0.00;0.62;;;;;21.70;1.00;;;;;;2251402;61;2019;-90
2021/06/06 13:24:42;169937.00;0.57;294.16;0.00;0.00;0.62;;;;;21.80;1.00;;;;;;2253372;61;1691;-91
2021/06/06 13:27:27;552811.00;1.84;952.81;30635.00;0.10;53.68;;;;;21.90;1.00;;;;;;2259843;61;1719;-90
2021/06/06 13:29:55;640135.00;2.13;1103.57;95261.00;0.32;165.39;;;;;21.90;1.00;;;;;;2263739;61;1597;-91
2021/06/06 13:32:41;525875.00;1.75;906.39;0.00;0.00;0.62;;;;;21.90;1.00;;;;;;2263691;61;980;-90
2021/06/06 13:35:10;241918.00;0.81;418.05;0.00;0.00;0.62;;;;;22.00;1.00;;;;;;2271094;61;1582;-91
2021/06/06 13:37:44;273798.00;0.91;472.87;0.00;0.00;0.62;;;;;22.20;1.00;;;;;;2276242;61;1711;-91
2021/06/06 13:40:14;481502.00;1.61;829.98;15734.00;0.05;27.88;;;;;22.30;1.00;;;;;;2276116;61;2012;-90
2021/06/06 13:42:43;454521.00;1.52;783.56;46715.00;0.16;81.50;;;;;22.40;1.00;;;;;;2276218;61;1553;-91
2021/06/06 13:45:14;272155.00;0.91;470.05;0.00;0.00;0.62;;;;;22.30;1.00;;;;;;2276117;61;1679;-92
2021/06/06 14:31:30;555518.00;1.85;957.47;114865.00;0.38;199.22;;;;;21.90;1.00;;;;;;2277635;61;1414;-91
2021/06/06 14:33:57;379424.00;1.26;654.44;72586.00;0.24;126.23;;;;;22.00;1.00;;;;;;2267643;61;955;-91
2021/06/06 14:36:27;589543.00;1.97;1016.17;82095.00;0.27;142.66;;;;;21.90;1.00;;;;;;2260253;61;1034;-86
2021/06/06 14:38:54;120041688.00;400.14;70073040.00;74395.00;0.25;129.35;;;;;21.30;1.00;;;;;;2260370;61;1410;-89
2021/06/06 14:41:21;351183.00;1.17;605.89;90228.00;0.30;156.70;;;;;21.50;1.00;;;;;;2253671;61;1916;-92
2021/06/06 14:43:48;516412.00;1.72;890.08;48704.00;0.16;84.94;;;;;21.80;1.00;;;;;;2250340;61;1111;-91
2021/06/06 14:46:15;630854.00;2.10;1087.53;83118.00;0.28;144.42;;;;;21.90;1.00;;;;;;2248384;61;962;-90
2021/06/06 14:48:44;408091.00;1.36;703.71;71272.00;0.24;123.96;;;;;21.90;1.00;;;;;;2240372;61;1417;-91
2021/06/06 14:51:12;423873.00;1.41;730.85;69437.00;0.23;120.79;;;;;22.00;1.00;;;;;;2241632;61;1046;-92
2021/06/06 14:53:39;452459.00;1.51;780.01;75535.00;0.25;131.32;;;;;21.90;1.00;;;;;;2242499;61;1000;-91
2021/06/06 14:56:09;684987.00;2.28;1181.21;71094.00;0.24;123.65;;;;;22.10;1.00;;;;;;2252313;61;1023;-90
2021/06/06 14:58:37;346670.00;1.16;598.14;73265.00;0.24;127.40;;;;;22.20;1.00;;;;;;2252409;61;1404;-90
2021/06/06 15:01:06;460498.00;1.53;793.84;61453.00;0.20;106.99;;;;;22.10;1.00;;;;;;2252286;61;1914;-91
2021/06/06 15:03:33;490753.00;1.64;845.90;70048.00;0.23;121.84;;;;;22.00;1.00;;;;;;2254599;61;1037;-91